createdAt,value
2017-11-03T00:02:09.388Z,87.70
2017-11-03T00:04:38.235Z,87.90
2017-11-03T00:07:07.087Z,87.70
2017-11-03T00:09:36.698Z,87.90
2017-11-03T00:12:06.316Z,87.80
2017-11-03T00:14:35.166Z,87.80
2017-11-03T00:17:04.014Z,87.70
2017-11-03T00:19:32.868Z,87.60
2017-11-03T00:22:01.712Z,87.70
2017-11-03T00:24:29.899Z,87.70
2017-11-03T00:26:59.519Z,87.80
2017-11-03T00:29:28.378Z,87.80
2017-11-03T00:31:57.227Z,87.70
2017-11-03T00:34:26.106Z,88.00
2017-11-03T00:36:54.950Z,88.10
2017-11-03T00:39:23.831Z,88.10
2017-11-03T00:41:52.668Z,88.20
2017-11-03T00:44:21.192Z,88.20
2017-11-03T00:46:50.800Z,88.20
2017-11-03T00:49:20.429Z,88.20
2017-11-03T00:51:49.289Z,88.20
2017-11-03T00:54:18.911Z,89.00
2017-11-03T00:56:48.562Z,88.40
2017-11-03T00:59:17.440Z,88.40
2017-11-03T01:01:46.291Z,88.60
2017-11-03T01:04:15.927Z,88.70
2017-11-03T01:06:44.772Z,88.60
2017-11-03T01:09:13.602Z,88.80
2017-11-03T01:11:42.468Z,88.80
2017-11-03T01:14:11.324Z,89.00
2017-11-03T01:16:40.170Z,88.90
2017-11-03T01:19:09.022Z,89.00
2017-11-03T01:21:37.875Z,89.00
2017-11-03T01:24:06.728Z,89.10
2017-11-03T01:26:36.329Z,89.40
2017-11-03T01:29:05.961Z,89.40
2017-11-03T01:31:34.818Z,89.30
2017-11-03T01:34:03.668Z,89.40
2017-11-03T01:36:32.518Z,89.40
2017-11-03T01:39:01.799Z,90.00
2017-11-03T01:41:30.656Z,89.40
2017-11-03T01:43:59.501Z,89.30
2017-11-03T01:46:29.131Z,89.30
2017-11-03T01:48:57.971Z,89.20
2017-11-03T01:51:26.821Z,89.30
2017-11-03T01:53:55.666Z,89.30
2017-11-03T01:56:24.522Z,89.50
2017-11-03T01:58:53.415Z,89.60
2017-11-03T02:01:22.278Z,89.70
2017-11-03T02:03:51.172Z,89.70
2017-11-03T02:06:20.046Z,89.80
2017-11-03T02:08:49.674Z,90.10
2017-11-03T02:11:18.542Z,90.10
2017-11-03T02:13:48.169Z,90.30
2017-11-03T02:16:17.023Z,90.30
2017-11-03T02:18:45.883Z,90.40
2017-11-03T02:21:14.096Z,90.40
2017-11-03T02:23:43.399Z,90.30
2017-11-03T02:26:13.014Z,90.40
2017-11-03T02:28:42.626Z,90.50
2017-11-03T02:31:12.246Z,90.60
2017-11-03T02:33:41.898Z,90.60
2017-11-03T02:36:10.769Z,90.60
2017-11-03T02:38:39.628Z,90.70
2017-11-03T02:41:09.132Z,90.90
2017-11-03T02:43:38.781Z,91.10
2017-11-03T02:46:07.650Z,91.10
2017-11-03T02:48:36.518Z,91.30
2017-11-03T02:51:06.150Z,91.90
2017-11-03T02:53:35.013Z,91.80
2017-11-03T02:56:03.863Z,92.10
2017-11-03T02:58:32.754Z,92.40
2017-11-03T03:01:01.615Z,92.60
2017-11-03T03:03:30.503Z,92.70
2017-11-03T03:05:59.358Z,92.80
2017-11-03T03:08:28.199Z,92.90
2017-11-03T03:10:57.051Z,92.90
2017-11-03T03:13:25.898Z,93.00
2017-11-03T03:15:54.778Z,93.10
2017-11-03T03:18:23.653Z,93.00
2017-11-03T03:20:52.525Z,93.10
2017-11-03T03:23:22.159Z,93.00
2017-11-03T03:25:50.675Z,93.50
2017-11-03T03:28:19.527Z,93.20
2017-11-03T03:30:48.377Z,93.20
2017-11-03T03:33:16.945Z,93.30
2017-11-03T03:35:45.482Z,93.70
2017-11-03T03:38:14.335Z,93.90
2017-11-03T03:40:43.181Z,93.80
2017-11-03T03:43:12.039Z,93.80
2017-11-03T03:45:40.982Z,93.40
2017-11-03T03:48:09.166Z,93.80
2017-11-03T03:50:38.792Z,93.30
2017-11-03T03:53:07.638Z,93.30
2017-11-03T03:55:36.506Z,93.30
2017-11-03T03:58:07.230Z,93.20
2017-11-03T04:00:36.853Z,93.20
2017-11-03T04:03:05.419Z,93.50
2017-11-03T04:05:35.054Z,93.10
2017-11-03T04:08:03.912Z,93.10
2017-11-03T04:10:32.443Z,93.10
2017-11-03T04:13:01.304Z,93.40
2017-11-03T04:15:30.915Z,93.30
2017-11-03T04:17:59.759Z,93.00
2017-11-03T04:20:28.619Z,92.80
2017-11-03T04:22:57.482Z,92.80
2017-11-03T04:25:25.689Z,92.80
2017-11-03T04:27:54.548Z,92.70
2017-11-03T04:30:24.177Z,92.50
2017-11-03T04:32:53.049Z,92.50
2017-11-03T04:35:22.721Z,92.60
2017-11-03T04:37:51.587Z,92.60
2017-11-03T04:40:20.158Z,92.40
2017-11-03T04:42:49.504Z,92.40
2017-11-03T04:45:18.357Z,92.40
2017-11-03T04:47:47.240Z,92.40
2017-11-03T04:50:16.132Z,92.30
2017-11-03T04:52:45.009Z,92.60
2017-11-03T04:55:13.215Z,92.30
2017-11-03T04:57:42.091Z,92.30
2017-11-03T05:00:10.948Z,92.20
2017-11-03T05:02:40.571Z,92.30
2017-11-03T05:05:10.218Z,92.30
2017-11-03T05:07:38.779Z,92.80
2017-11-03T05:10:07.644Z,92.30
2017-11-03T05:12:37.263Z,92.70
2017-11-03T05:15:06.887Z,92.30
2017-11-03T05:17:35.743Z,92.80
2017-11-03T05:20:04.273Z,92.20
2017-11-03T05:22:33.152Z,92.20
2017-11-03T05:25:02.019Z,92.30
2017-11-03T05:27:31.635Z,92.50
2017-11-03T05:30:01.263Z,92.90
2017-11-03T05:32:30.113Z,92.90
2017-11-03T05:34:58.976Z,93.00
2017-11-03T05:37:27.414Z,93.00
2017-11-03T05:39:58.038Z,92.90
2017-11-03T05:42:29.196Z,93.00
2017-11-03T05:44:59.545Z,93.00
2017-11-03T05:47:28.772Z,93.00
2017-11-03T05:49:57.607Z,93.10
2017-11-03T05:52:27.220Z,93.10
2017-11-03T05:54:56.100Z,93.00
2017-11-03T05:57:25.716Z,93.20
2017-11-03T05:59:54.572Z,93.20
2017-11-03T06:02:23.251Z,93.20
2017-11-03T06:04:52.105Z,93.30
2017-11-03T06:07:20.958Z,93.20
2017-11-03T06:09:50.583Z,93.30
2017-11-03T06:12:20.042Z,93.20
2017-11-03T06:14:48.913Z,93.20
2017-11-03T06:17:17.784Z,93.20
2017-11-03T06:19:46.657Z,93.20
2017-11-03T06:22:15.507Z,93.20
2017-11-03T06:24:44.355Z,93.20
2017-11-03T06:27:13.219Z,92.70
2017-11-03T06:29:42.847Z,92.60
2017-11-03T06:32:11.714Z,92.50
2017-11-03T06:34:40.573Z,92.50
2017-11-03T06:37:09.441Z,92.20
2017-11-03T06:39:38.295Z,92.30
2017-11-03T06:42:07.936Z,92.30
2017-11-03T06:44:36.807Z,92.20
2017-11-03T06:47:05.344Z,92.30
2017-11-03T06:49:34.195Z,92.30
2017-11-03T06:52:03.068Z,92.20
2017-11-03T06:54:32.687Z,92.00
2017-11-03T06:57:01.562Z,92.00
2017-11-03T06:59:30.456Z,91.70
2017-11-03T07:02:00.186Z,91.40
2017-11-03T07:04:28.699Z,91.40
2017-11-03T07:06:57.559Z,91.40
2017-11-03T07:09:26.419Z,91.30
2017-11-03T07:11:56.061Z,91.30
2017-11-03T07:14:24.927Z,91.10
2017-11-03T07:16:54.539Z,91.00
2017-11-03T07:19:24.163Z,90.90
2017-11-03T07:21:53.017Z,90.90
2017-11-03T07:24:21.863Z,90.90
2017-11-03T07:26:50.763Z,90.80
2017-11-03T07:29:19.619Z,90.60
2017-11-03T07:31:49.230Z,90.50
2017-11-03T07:34:18.852Z,90.50
2017-11-03T09:10:46.097Z,90.40
2017-11-03T09:13:14.946Z,83.60
2017-11-03T09:15:44.595Z,84.20
2017-11-03T09:18:13.439Z,84.10
2017-11-03T09:20:43.573Z,84.10
2017-11-03T09:23:11.763Z,84.00
2017-11-03T09:25:39.963Z,84.10
2017-11-03T09:28:10.746Z,83.50
2017-11-03T09:30:39.611Z,83.40
2017-11-03T09:33:08.489Z,82.90
2017-11-03T09:35:37.749Z,82.90
2017-11-03T09:38:06.603Z,82.30
2017-11-03T09:40:35.481Z,82.00
2017-11-03T09:43:04.843Z,81.30
2017-11-03T09:45:33.707Z,81.30
2017-11-03T09:48:03.379Z,80.60
2017-11-03T09:50:32.236Z,80.60
2017-11-03T09:53:01.105Z,80.20
2017-11-03T09:55:30.720Z,79.60
2017-11-03T09:57:59.623Z,79.50
2017-11-03T10:00:28.515Z,79.30
2017-11-03T10:02:57.753Z,78.90
2017-11-03T10:05:26.595Z,78.30
2017-11-03T10:07:55.497Z,77.60
2017-11-03T10:10:24.047Z,76.90
2017-11-03T10:12:52.725Z,76.50
2017-11-03T10:15:22.586Z,76.10
2017-11-03T10:17:51.458Z,76.20
2017-11-03T10:20:20.333Z,75.10
2017-11-03T10:22:49.951Z,73.40
2017-11-03T10:25:19.416Z,72.80
2017-11-03T10:27:48.290Z,72.80
2017-11-03T10:30:17.156Z,72.30
2017-11-03T10:32:46.025Z,72.20
2017-11-03T10:35:15.746Z,71.20
2017-11-03T10:37:44.599Z,71.10
2017-11-03T10:40:13.194Z,70.20
2017-11-03T10:42:42.076Z,70.20
2017-11-03T10:45:10.280Z,69.90
2017-11-03T10:47:39.913Z,68.30
2017-11-03T10:50:08.130Z,68.30
2017-11-03T10:52:36.669Z,67.80
2017-11-03T10:55:05.534Z,67.30
2017-11-03T10:57:35.168Z,67.00
2017-11-03T11:00:03.687Z,66.90
2017-11-03T11:02:31.889Z,65.80
2017-11-03T11:05:00.735Z,65.30
2017-11-03T11:07:29.590Z,65.00
2017-11-03T11:09:59.223Z,65.30
2017-11-03T11:12:28.134Z,65.30
2017-11-03T11:14:57.048Z,65.70
2017-11-03T11:17:25.892Z,65.30
2017-11-03T11:19:54.727Z,64.20
2017-11-03T11:22:23.677Z,64.00
2017-11-03T11:24:52.526Z,63.80
2017-11-03T11:27:22.018Z,63.80
2017-11-03T11:29:50.572Z,63.90
2017-11-03T11:32:19.551Z,64.10
2017-11-03T11:34:48.403Z,63.20
2017-11-03T11:37:16.922Z,62.80
2017-11-03T11:39:45.815Z,62.80
2017-11-03T11:42:14.354Z,62.20
2017-11-03T11:44:42.369Z,62.10
2017-11-03T11:47:10.558Z,62.00
2017-11-03T11:49:38.731Z,61.30
2017-11-03T11:52:07.591Z,60.60
2017-11-03T11:54:36.583Z,60.50
2017-11-03T11:57:05.880Z,60.50
2017-11-03T11:59:34.903Z,61.60
2017-11-03T12:02:03.091Z,61.50
2017-11-03T12:04:31.285Z,61.70
2017-11-03T12:07:00.731Z,62.30
2017-11-03T12:09:30.383Z,62.70
2017-11-03T12:11:58.925Z,62.70
2017-11-03T12:14:28.626Z,63.10
2017-11-03T12:16:57.187Z,63.00
2017-11-03T12:19:26.068Z,63.30
2017-11-03T12:21:54.598Z,63.30
2017-11-03T12:24:23.562Z,63.50
2017-11-03T12:26:51.771Z,63.40
2017-11-03T12:29:21.407Z,63.50
2017-11-03T12:31:50.263Z,63.40
2017-11-03T12:34:19.911Z,63.20
2017-11-03T12:36:48.794Z,63.20
2017-11-03T12:39:17.003Z,63.10
2017-11-03T12:41:45.198Z,63.30
2017-11-03T12:44:13.399Z,63.30
2017-11-03T12:46:42.699Z,63.30
2017-11-03T12:49:11.666Z,63.30
2017-11-03T12:51:40.247Z,63.20
2017-11-03T12:54:08.460Z,63.20
2017-11-03T12:56:36.654Z,63.50
2017-11-03T12:59:05.610Z,63.30
2017-11-03T13:01:34.575Z,62.70
2017-11-03T13:04:02.763Z,62.80
2017-11-03T13:06:30.966Z,62.50
2017-11-03T13:08:59.937Z,62.60
2017-11-03T13:11:28.850Z,62.70
2017-11-03T13:13:58.165Z,62.70
2017-11-03T13:16:26.364Z,62.60
2017-11-03T13:18:54.562Z,62.60
2017-11-03T13:21:22.765Z,62.40
2017-11-03T13:23:50.954Z,62.70
2017-11-03T13:26:20.086Z,62.60
2017-11-03T13:28:48.480Z,62.70
2017-11-03T13:31:16.675Z,62.50
2017-11-03T13:33:44.867Z,62.50
2017-11-03T13:36:13.101Z,62.50
2017-11-03T13:38:41.642Z,62.60
2017-11-03T13:41:11.282Z,62.60
2017-11-03T13:43:39.467Z,62.60
2017-11-03T13:46:07.995Z,62.50
2017-11-03T13:48:37.303Z,62.50
2017-11-03T13:51:06.270Z,62.60
2017-11-03T13:53:35.148Z,62.60
2017-11-03T13:56:03.327Z,62.30
2017-11-03T13:58:31.514Z,62.20
2017-11-03T14:01:00.375Z,62.20
2017-11-03T14:03:29.232Z,62.70
2017-11-03T14:05:58.691Z,62.70
2017-11-03T14:08:27.574Z,62.70
2017-11-03T14:10:56.505Z,62.60
2017-11-03T14:13:27.081Z,62.90
2017-11-03T14:15:55.947Z,62.90
2017-11-03T14:18:24.803Z,63.00
2017-11-03T14:20:53.660Z,62.90
2017-11-03T14:23:22.551Z,62.40
2017-11-03T14:25:51.406Z,62.50
2017-11-03T14:28:21.042Z,62.80
2017-11-03T14:30:49.912Z,62.80
2017-11-03T14:33:18.771Z,62.60
2017-11-03T14:35:47.640Z,62.90
2017-11-03T14:38:16.501Z,63.00
2017-11-03T14:40:45.390Z,63.10
2017-11-03T14:43:14.242Z,62.80
2017-11-03T14:45:43.109Z,63.20
2017-11-03T14:48:11.962Z,63.00
2017-11-03T14:50:40.823Z,62.80
2017-11-03T14:53:10.460Z,63.00
2017-11-03T14:55:39.318Z,62.90
2017-11-03T14:58:08.180Z,62.90
2017-11-03T15:00:37.041Z,63.00
2017-11-03T15:03:05.571Z,63.30
2017-11-03T15:05:34.419Z,63.20
2017-11-03T15:08:03.273Z,62.90
2017-11-03T15:10:32.886Z,62.90
2017-11-03T15:13:02.503Z,63.40
2017-11-03T15:15:32.117Z,63.50
2017-11-03T15:18:01.723Z,63.70
2017-11-03T15:20:30.618Z,63.60
2017-11-03T15:22:59.850Z,64.00
2017-11-03T15:25:28.761Z,64.60
2017-11-03T15:27:57.666Z,65.00
2017-11-03T15:30:26.530Z,65.30
2017-11-03T15:32:55.392Z,65.80
2017-11-03T15:35:24.244Z,66.00
2017-11-03T15:37:53.103Z,66.20
2017-11-03T15:40:21.639Z,66.60
2017-11-03T15:42:51.262Z,67.30
2017-11-03T15:45:20.111Z,67.30
2017-11-03T15:47:48.966Z,67.50
2017-11-03T15:50:18.206Z,67.70
2017-11-03T15:52:47.075Z,67.90
2017-11-03T15:55:15.934Z,68.40
2017-11-03T15:57:44.459Z,68.80
2017-11-03T16:00:12.992Z,69.10
2017-11-03T16:02:41.885Z,69.40
2017-11-03T16:05:10.727Z,69.40
2017-11-03T16:07:39.595Z,69.70
2017-11-03T16:10:08.448Z,70.20
2017-11-03T16:12:37.293Z,70.60
2017-11-03T16:15:06.144Z,70.90
2017-11-03T16:17:34.999Z,71.30
2017-11-03T16:20:03.847Z,71.30
2017-11-03T16:22:32.716Z,71.60
2017-11-03T16:25:01.571Z,71.90
2017-11-03T16:27:31.191Z,72.60
2017-11-03T16:30:00.825Z,72.90
2017-11-03T16:32:29.684Z,72.90
2017-11-03T16:34:59.315Z,73.70
2017-11-03T16:37:28.918Z,73.80
2017-11-03T16:39:57.783Z,73.80
2017-11-03T16:42:26.631Z,74.20
2017-11-03T16:44:56.037Z,74.40
2017-11-03T16:47:24.925Z,74.50
2017-11-03T16:49:53.774Z,74.80
2017-11-03T16:52:23.405Z,75.00
2017-11-03T16:54:52.251Z,75.00
2017-11-03T16:57:20.783Z,75.30
2017-11-03T16:59:50.502Z,76.10
2017-11-03T17:02:19.559Z,75.90
2017-11-03T17:04:48.416Z,76.20
2017-11-03T17:07:17.276Z,76.30
2017-11-03T17:09:46.162Z,76.60
2017-11-03T17:12:15.024Z,76.70
2017-11-03T17:14:44.692Z,77.40
2017-11-03T17:17:13.376Z,77.30
2017-11-03T17:19:43.066Z,77.70
2017-11-03T17:22:11.919Z,77.70
2017-11-03T17:24:40.767Z,77.90
2017-11-03T17:27:09.631Z,78.20
2017-11-03T17:29:38.484Z,78.50
2017-11-03T17:32:07.330Z,78.80
2017-11-03T17:34:35.856Z,78.70
2017-11-03T17:37:04.704Z,79.10
2017-11-03T17:39:34.425Z,79.50
2017-11-03T17:42:03.281Z,79.70
2017-11-03T17:44:32.998Z,79.80
2017-11-03T17:47:01.858Z,79.90
2017-11-03T17:49:30.392Z,80.00
2017-11-03T17:51:59.244Z,80.30
2017-11-03T17:54:28.862Z,80.10
2017-11-03T17:56:58.480Z,80.00
2017-11-03T17:59:27.339Z,80.00
2017-11-03T18:01:56.968Z,80.30
2017-11-03T18:04:26.606Z,80.20
2017-11-03T18:06:55.686Z,80.10
2017-11-03T18:09:24.530Z,80.30
2017-11-03T18:11:53.214Z,80.60
2017-11-03T18:14:23.016Z,80.60
2017-11-03T18:16:57.950Z,81.00
2017-11-03T18:19:28.125Z,80.90
2017-11-03T18:21:58.985Z,81.10
2017-11-03T18:24:31.196Z,82.20
2017-11-03T18:27:00.052Z,82.30
2017-11-03T18:29:29.438Z,82.40
2017-11-03T18:31:58.210Z,82.70
2017-11-03T18:34:27.537Z,83.00
2017-11-03T18:36:57.286Z,82.90
2017-11-03T18:39:26.587Z,83.10
2017-11-03T18:41:57.989Z,83.10
2017-11-03T18:44:26.875Z,83.30
2017-11-03T18:46:55.459Z,83.50
2017-11-03T18:49:24.324Z,83.50
2017-11-03T18:51:54.211Z,83.60
2017-11-03T18:54:27.092Z,83.90
2017-11-03T18:56:56.067Z,84.00
2017-11-03T18:59:24.924Z,84.20
2017-11-03T19:04:41.534Z,84.20
2017-11-03T19:07:11.718Z,84.80
2017-11-03T19:09:41.600Z,85.00
2017-11-03T19:12:10.333Z,85.10
2017-11-03T19:14:38.531Z,85.40
2017-11-03T19:17:07.385Z,85.50
2017-11-03T19:19:36.276Z,85.40
2017-11-03T19:22:05.188Z,85.30
2017-11-03T19:24:34.811Z,85.40
2017-11-03T19:27:04.580Z,85.40
2017-11-03T19:29:33.264Z,85.00
2017-11-03T19:32:02.119Z,85.60
2017-11-03T19:34:31.727Z,85.90
2017-11-03T19:37:01.438Z,85.90
2017-11-03T19:39:31.060Z,86.40
2017-11-03T19:41:59.918Z,86.30
2017-11-03T19:44:28.784Z,86.30
2017-11-03T19:46:57.651Z,86.20
2017-11-03T19:49:26.338Z,86.30
2017-11-03T19:51:55.965Z,86.60
2017-11-03T19:54:25.815Z,86.70
2017-11-03T19:56:55.362Z,86.90
2017-11-03T20:01:59.510Z,87.20
2017-11-03T20:04:28.364Z,87.30
2017-11-03T20:06:57.995Z,87.70
2017-11-03T20:09:40.317Z,87.70
2017-11-03T20:12:23.017Z,87.80
2017-11-03T20:15:05.731Z,87.80
2017-11-03T20:17:46.879Z,87.70
2017-11-03T20:20:27.566Z,87.50
2017-11-03T20:23:12.648Z,87.50
2017-11-03T20:25:49.050Z,87.50
2017-11-03T20:28:17.913Z,87.50
2017-11-03T20:30:47.020Z,87.50
2017-11-03T20:33:15.949Z,87.60
2017-11-03T20:35:47.972Z,88.10
2017-11-03T20:38:18.124Z,88.00
2017-11-03T20:40:50.351Z,87.90
2017-11-03T20:43:24.092Z,88.20
2017-11-03T20:45:55.607Z,88.90
2017-11-03T20:48:24.485Z,89.60
2017-11-03T20:50:57.933Z,89.50
2017-11-03T21:01:09.239Z,89.20
2017-11-03T21:03:38.140Z,89.40
2017-11-03T21:06:08.752Z,89.10
2017-11-03T21:08:37.422Z,89.10
2017-11-03T21:11:07.686Z,88.90
2017-11-03T21:13:36.646Z,88.80
2017-11-03T21:16:06.105Z,89.60
2017-11-03T21:18:35.039Z,89.80
2017-11-03T21:21:04.783Z,89.70
2017-11-03T21:23:33.778Z,89.60
2017-11-03T21:26:05.181Z,89.40
2017-11-03T21:28:34.095Z,89.50
2017-11-03T21:31:03.810Z,89.80
2017-11-03T21:33:33.623Z,89.70
2017-11-03T21:36:02.509Z,89.40
2017-11-03T21:38:32.035Z,89.30
2017-11-03T21:41:01.653Z,89.30
2017-11-03T21:43:30.622Z,89.50
2017-11-03T21:45:59.768Z,89.50
2017-11-03T21:48:29.958Z,89.50
2017-11-03T21:50:58.817Z,89.30
2017-11-03T21:53:27.916Z,89.10
2017-11-03T21:55:57.994Z,89.00
2017-11-03T21:58:27.255Z,88.90
2017-11-03T22:00:56.158Z,89.00
2017-11-03T22:03:29.916Z,89.00
2017-11-03T22:05:59.116Z,88.90
2017-11-03T22:08:35.413Z,88.80
2017-11-03T22:11:04.664Z,88.80
2017-11-03T22:13:33.641Z,88.90
2017-11-03T22:16:02.656Z,88.90
2017-11-03T22:18:31.507Z,88.80
2017-11-03T22:21:00.358Z,88.80
2017-11-03T22:23:29.211Z,88.90
2017-11-03T22:25:58.069Z,88.80
2017-11-03T22:28:26.928Z,88.70
2017-11-03T22:30:56.547Z,89.10
2017-11-03T22:33:26.169Z,88.50
2017-11-03T22:35:56.126Z,88.50
2017-11-03T22:38:25.329Z,88.40
2017-11-03T22:40:54.182Z,88.40
2017-11-03T22:43:23.032Z,88.40
2017-11-03T22:45:51.880Z,88.50
2017-11-03T22:48:20.723Z,88.30
2017-11-03T22:50:49.570Z,88.50
2017-11-03T22:53:18.553Z,89.20
2017-11-03T22:55:47.405Z,88.50
2017-11-03T22:58:17.178Z,88.40
2017-11-03T23:00:46.033Z,88.30
2017-11-03T23:03:14.953Z,88.30
2017-11-03T23:05:43.836Z,88.40
2017-11-03T23:08:12.720Z,88.50
2017-11-03T23:10:41.600Z,88.60
2017-11-03T23:13:10.456Z,88.50
2017-11-03T23:15:39.363Z,88.40
2017-11-03T23:18:08.975Z,88.40
2017-11-03T23:20:38.600Z,88.30
2017-11-03T23:23:08.086Z,88.30
2017-11-03T23:25:37.710Z,88.40
2017-11-03T23:28:07.390Z,88.20
2017-11-03T23:30:36.235Z,88.20
2017-11-03T23:33:05.096Z,88.00
2017-11-03T23:35:34.720Z,88.00
2017-11-03T23:38:03.582Z,88.00
2017-11-03T23:40:32.254Z,87.90
2017-11-03T23:43:01.120Z,88.00
2017-11-03T23:45:29.983Z,88.20
2017-11-03T23:47:58.842Z,88.10
2017-11-03T23:50:27.695Z,88.00
2017-11-03T23:52:56.560Z,88.20
2017-11-03T23:55:25.413Z,88.00
2017-11-03T23:57:54.262Z,88.00
